Time;durP1;ratioP1;P1;durP2;ratioP2;P2;SDS_P1;SDS_P2;PMS_P1;PMS_P2;Temp;Humidity;BMP_temperature;BMP_pressure;BME280_temperature;BME280_humidity;BME280_pressure;Samples;Min_cycle;Max_cycle;Signal;HPM_P1;HPM_P2
2021/12/11 00:01:07;;;;;;;22.33;14.83;;;-0.70;99.90;;;-0.15;100.00;98832.53;5092740;28;20184;-63
2021/12/11 00:03:41;;;;;;;27.83;16.57;;;-0.70;99.90;;;-0.09;100.00;98838.91;5093114;28;20189;-64
2021/12/11 00:06:14;;;;;;;26.60;16.87;;;-0.70;99.90;;;-0.12;100.00;98845.38;5092839;28;20278;-63
2021/12/11 00:08:46;;;;;;;22.43;16.10;;;-0.70;99.90;;;0.04;100.00;98852.28;5092982;28;20190;-64
2021/12/11 00:11:22;;;;;;;28.87;16.87;;;-0.70;99.90;;;-0.07;100.00;98855.44;5092710;28;20203;-64
2021/12/11 00:13:56;;;;;;;25.67;17.13;;;-0.70;99.90;;;0.07;100.00;98862.50;5092646;28;20520;-64
2021/12/11 00:16:31;;;;;;;26.93;17.30;;;-0.60;99.90;;;-0.06;100.00;98865.81;5092769;28;20181;-64
2021/12/11 00:19:05;;;;;;;26.03;16.23;;;-0.60;99.90;;;-0.04;100.00;98868.28;5092255;28;20189;-64
2021/12/11 00:21:34;;;;;;;24.67;16.30;;;-0.60;99.90;;;-0.16;100.00;98878.50;5092845;28;20183;-64
2021/12/11 00:24:06;;;;;;;26.20;17.07;;;-0.70;99.90;;;-0.09;100.00;98879.44;5092376;28;20208;-64
2021/12/11 00:26:39;;;;;;;25.17;16.60;;;-0.70;99.90;;;-0.03;100.00;98881.31;5092860;28;20271;-64
2021/12/11 00:29:10;;;;;;;27.47;17.63;;;-0.70;99.90;;;-0.02;100.00;98887.44;5092258;28;20197;-63
2021/12/11 00:31:47;;;;;;;27.03;16.83;;;-0.70;99.90;;;-0.12;100.00;98895.66;5092247;28;20235;-65
2021/12/11 00:34:19;;;;;;;29.53;17.77;;;-0.70;99.90;;;-0.05;100.00;98896.56;5092350;28;20550;-63
2021/12/11 00:36:52;;;;;;;27.13;17.00;;;-0.70;99.90;;;-0.16;100.00;98899.69;5092327;28;20723;-64
2021/12/11 00:39:22;;;;;;;31.07;18.57;;;-0.70;99.90;;;0.02;100.00;98903.78;5091967;28;20611;-64
2021/12/11 00:41:55;;;;;;;27.80;17.67;;;-0.70;99.90;;;-0.02;100.00;98903.31;5091933;28;20184;-64
2021/12/11 00:44:36;;;;;;;27.93;17.70;;;-0.60;99.90;;;-0.09;100.00;98913.00;5091953;28;20279;-64
2021/12/11 00:47:14;;;;;;;28.73;18.10;;;-0.60;99.90;;;-0.11;100.00;98912.34;5091729;28;20478;-64
2021/12/11 00:49:52;;;;;;;29.07;17.60;;;-0.70;99.90;;;0.00;100.00;98917.19;5092003;28;20191;-64
2021/12/11 00:52:30;;;;;;;27.73;18.53;;;-0.70;99.90;;;0.08;100.00;98926.84;5071954;28;20307;-65
2021/12/11 00:55:00;;;;;;;31.73;17.80;;;-0.60;99.90;;;-0.05;100.00;98928.31;5071554;28;20241;-65
2021/12/11 00:57:29;;;;;;;26.50;17.43;;;-0.60;99.90;;;-0.17;100.00;98927.13;5071382;28;20200;-64
2021/12/11 01:00:07;;;;;;;29.33;19.20;;;-0.70;99.90;;;-0.20;100.00;98932.78;5071672;28;20213;-64
2021/12/11 01:02:35;;;;;;;29.03;18.50;;;-0.70;99.90;;;-0.09;100.00;98937.66;5071654;28;20263;-64
2021/12/11 01:05:07;;;;;;;25.90;17.63;;;-0.70;99.90;;;0.11;100.00;98939.72;5072546;28;20678;-65
2021/12/11 01:07:36;;;;;;;27.57;17.70;;;-0.70;99.90;;;0.24;100.00;98947.84;5091770;28;20601;-64
2021/12/11 01:10:15;;;;;;;30.07;18.33;;;-0.60;99.90;;;0.22;100.00;98945.38;5091703;28;20238;-63
2021/12/11 01:12:54;;;;;;;27.33;17.40;;;-0.60;99.90;;;-0.10;100.00;98945.72;5091691;28;20574;-64
2021/12/11 01:15:30;;;;;;;29.87;18.10;;;-0.60;99.90;;;-0.10;100.00;98951.03;5091926;28;20276;-63
2021/12/11 01:18:21;;;;;;;28.83;18.60;;;-0.70;99.90;;;0.08;100.00;98954.16;5091675;28;20188;-64
2021/12/11 01:21:00;;;;;;;25.30;17.20;;;-0.70;99.90;;;-0.15;100.00;98962.16;5091709;28;20223;-65
2021/12/11 01:23:47;;;;;;;30.10;19.33;;;-0.70;99.90;;;0.14;100.00;98964.00;5091618;28;20184;-64
2021/12/11 01:26:21;;;;;;;28.53;18.23;;;-0.60;99.90;;;0.13;100.00;98972.13;5091127;28;20190;-64
2021/12/11 01:28:53;;;;;;;28.57;17.73;;;-0.60;99.90;;;0.02;100.00;98965.44;5091814;28;20281;-64
2021/12/11 01:31:23;;;;;;;30.57;18.03;;;-0.70;99.90;;;-0.11;100.00;98981.97;5092382;28;20775;-64
2021/12/11 01:33:55;;;;;;;25.73;18.10;;;-0.70;99.90;;;-0.03;100.00;98992.47;5095483;28;20229;-64
2021/12/11 01:36:24;;;;;;;30.13;18.53;;;-0.80;99.90;;;0.03;100.00;98988.28;5095495;28;20196;-65
2021/12/11 01:38:56;;;;;;;29.97;18.67;;;-0.80;99.90;;;-0.15;100.00;98993.91;5095562;28;20236;-64
2021/12/11 01:41:25;;;;;;;27.60;18.37;;;-0.80;99.90;;;-0.23;100.00;98995.81;5095026;28;20191;-65
2021/12/11 01:44:00;;;;;;;28.70;17.87;;;-0.80;99.90;;;-0.30;100.00;99005.47;5095202;28;20739;-65
2021/12/11 01:46:29;;;;;;;30.70;19.00;;;-0.90;99.90;;;-0.25;100.00;99005.75;5094816;28;20612;-63
2021/12/11 01:49:04;;;;;;;26.83;17.57;;;-0.90;99.90;;;-0.36;100.00;99012.31;5095309;28;20204;-64
2021/12/11 01:51:39;;;;;;;31.20;19.67;;;-1.00;99.90;;;-0.28;100.00;99016.69;5094802;28;20301;-64
2021/12/11 01:54:16;;;;;;;29.70;19.20;;;-0.90;99.90;;;-0.37;100.00;99021.22;5095121;28;20192;-65
2021/12/11 01:56:49;;;;;;;31.33;21.20;;;-1.00;99.90;;;-0.32;100.00;99024.16;5094591;28;20279;-67
2021/12/11 01:59:23;;;;;;;30.17;18.90;;;-1.00;99.90;;;-0.42;100.00;99031.53;5095041;28;20276;-64
2021/12/11 02:01:57;;;;;;;31.30;19.40;;;-1.00;99.90;;;-0.46;100.00;99034.72;5094622;28;20193;-64
2021/12/11 02:04:29;;;;;;;29.30;18.33;;;-1.00;99.90;;;-0.51;100.00;99031.78;5094767;28;20631;-64
2021/12/11 02:07:04;;;;;;;27.03;18.07;;;-1.00;99.90;;;-0.55;100.00;99046.34;5094602;28;20361;-64
2021/12/11 02:09:36;;;;;;;36.03;24.83;;;-1.10;99.90;;;-0.18;100.00;99046.38;5094933;28;20209;-64
2021/12/11 02:12:11;;;;;;;29.83;21.67;;;-1.00;99.90;;;-0.16;100.00;99055.78;5094415;28;20252;-65
2021/12/11 02:14:47;;;;;;;29.33;18.53;;;-0.90;99.90;;;-0.15;100.00;99056.59;5094662;28;20187;-64
2021/12/11 02:17:22;;;;;;;29.83;19.80;;;-0.90;99.90;;;-0.21;100.00;99060.78;5094016;28;20279;-64
2021/12/11 02:19:57;;;;;;;25.30;17.13;;;-0.90;99.90;;;-0.12;100.00;99066.84;5094684;28;20267;-64
2021/12/11 02:22:31;;;;;;;29.73;19.20;;;-0.90;99.90;;;-0.10;100.00;99070.94;5094037;28;20215;-64
2021/12/11 02:25:03;;;;;;;26.20;17.70;;;-0.90;99.90;;;-0.16;100.00;99074.31;5094416;28;20279;-63
2021/12/11 02:27:36;;;;;;;24.70;17.20;;;-0.90;99.90;;;-0.47;100.00;99068.25;5094058;28;20543;-64
2021/12/11 02:30:20;;;;;;;31.37;18.13;;;-0.90;99.90;;;-0.42;100.00;99075.66;5094463;28;20283;-63
2021/12/11 02:32:58;;;;;;;25.83;17.67;;;-1.00;99.90;;;-0.05;100.00;99076.50;5093887;28;20228;-63
2021/12/11 02:35:37;;;;;;;27.23;18.30;;;-0.90;99.90;;;0.12;100.00;99087.75;5094621;28;20271;-64
2021/12/11 02:38:14;;;;;;;27.43;17.40;;;-0.80;99.90;;;0.05;100.00;99084.22;5094130;28;20284;-64
2021/12/11 02:40:50;;;;;;;26.00;17.40;;;-0.70;99.90;;;-0.17;100.00;99090.38;5094626;28;20222;-65
2021/12/11 02:43:28;;;;;;;29.73;17.87;;;-0.80;99.90;;;-0.10;100.00;99094.75;5086460;28;20287;-65
2021/12/11 02:46:06;;;;;;;29.37;18.43;;;-0.80;99.90;;;-0.02;100.00;99104.47;5073848;28;20181;-63
2021/12/11 02:48:41;;;;;;;24.83;16.27;;;-0.80;99.90;;;-0.24;100.00;99103.44;5073557;28;20295;-64
2021/12/11 02:51:18;;;;;;;24.97;16.80;;;-0.80;99.90;;;-0.17;100.00;99099.09;5073714;28;20184;-64
2021/12/11 02:53:54;;;;;;;23.60;16.00;;;-0.90;99.90;;;-0.52;100.00;99104.16;5073243;28;20234;-64
2021/12/11 02:56:30;;;;;;;24.03;15.73;;;-1.00;99.90;;;-0.75;100.00;99101.50;5073277;28;20656;-64
2021/12/11 02:59:05;;;;;;;25.97;16.70;;;-1.10;99.90;;;-0.55;100.00;99101.88;5085609;28;20226;-65
2021/12/11 03:01:38;;;;;;;24.97;16.80;;;-1.20;99.90;;;-0.32;100.00;99106.16;5093441;28;20710;-63
2021/12/11 03:04:18;;;;;;;27.43;17.10;;;-1.10;99.90;;;-0.46;100.00;99114.06;5093843;28;20184;-64
2021/12/11 03:06:49;;;;;;;27.27;16.70;;;-1.10;99.90;;;-0.65;100.00;99117.13;5093562;28;20216;-64
2021/12/11 03:09:23;;;;;;;27.37;17.37;;;-1.20;99.90;;;-0.71;100.00;99118.66;5092968;28;20209;-66
2021/12/11 03:11:54;;;;;;;25.23;17.43;;;-1.30;99.90;;;-0.91;100.00;99120.06;5092635;28;20294;-65
2021/12/11 03:14:25;;;;;;;29.60;16.37;;;-1.40;99.90;;;-1.02;100.00;99120.47;5092500;28;20628;-65
2021/12/11 03:16:54;;;;;;;26.27;16.33;;;-1.50;99.90;;;-0.51;100.00;99129.63;5092781;28;20187;-64
2021/12/11 03:19:29;;;;;;;29.40;16.97;;;-1.40;99.90;;;-0.57;100.00;99136.41;5092645;28;20775;-63
2021/12/11 03:22:00;;;;;;;30.77;17.73;;;-1.30;99.90;;;-0.76;100.00;99142.13;5093113;28;20206;-64
2021/12/11 03:24:33;;;;;;;29.00;17.90;;;-1.40;99.90;;;-0.71;100.00;99147.72;5092949;28;20267;-64
2021/12/11 03:27:03;;;;;;;30.60;17.57;;;-1.40;99.90;;;-0.66;100.00;99155.16;5092995;28;20220;-64
2021/12/11 03:29:31;;;;;;;29.80;16.80;;;-1.40;99.90;;;-0.44;100.00;99171.03;5092816;28;20298;-65
2021/12/11 03:32:00;;;;;;;65.90;18.87;;;-1.30;99.90;;;-0.53;100.00;99164.16;5092327;28;20233;-65
2021/12/11 03:34:30;;;;;;;56.50;16.97;;;-1.30;99.90;;;-0.61;100.00;99169.47;5092729;28;20211;-63
2021/12/11 03:37:03;;;;;;;54.63;19.33;;;-1.40;99.90;;;-0.64;100.00;99174.31;5092484;28;20198;-64
2021/12/11 03:39:37;;;;;;;23.13;14.67;;;-1.40;99.90;;;-0.66;100.00;99177.09;5085738;28;20302;-63
2021/12/11 03:42:11;;;;;;;24.27;13.77;;;-1.40;99.90;;;-0.77;100.00;99188.06;5072517;28;20242;-63
2021/12/11 03:44:41;;;;;;;34.00;14.80;;;-1.50;99.90;;;-0.78;100.00;99194.38;5071855;28;20655;-63
2021/12/11 03:47:16;;;;;;;22.30;13.90;;;-1.50;99.90;;;-1.04;100.00;99192.97;5072256;28;20521;-64
2021/12/11 03:49:45;;;;;;;22.57;13.50;;;-1.70;99.90;;;-0.86;100.00;99193.59;5072240;28;20261;-64
2021/12/11 03:52:16;;;;;;;21.50;14.63;;;-1.60;99.90;;;-0.88;100.00;99192.91;5072113;28;20281;-64
2021/12/11 03:54:50;;;;;;;21.43;13.60;;;-1.60;99.90;;;-0.74;100.00;99203.59;5079238;28;20245;-64
2021/12/11 03:57:29;;;;;;;24.13;12.80;;;-1.60;99.90;;;-0.78;100.00;99218.16;5092128;28;20644;-64
2021/12/11 03:59:58;;;;;;;20.47;13.13;;;-1.60;99.90;;;-0.68;100.00;99229.34;5092200;28;20209;-64
2021/12/11 04:02:33;;;;;;;23.57;13.47;;;-1.60;99.90;;;-0.89;100.00;99226.44;5091956;28;20700;-63
2021/12/11 04:05:08;;;;;;;24.03;13.30;;;-1.60;99.90;;;-0.78;100.00;99228.75;5092414;28;20354;-63
2021/12/11 04:07:41;;;;;;;18.90;12.83;;;-1.60;99.90;;;-0.67;100.00;99235.44;5092282;28;20194;-64
2021/12/11 04:10:15;;;;;;;19.87;11.97;;;-1.60;99.90;;;-0.86;100.00;99241.94;5092124;28;20269;-64
2021/12/11 04:12:44;;;;;;;23.47;12.13;;;-1.70;99.90;;;-1.15;100.00;99246.97;5092096;28;20203;-64
2021/12/11 04:15:13;;;;;;;20.03;12.83;;;-1.80;99.90;;;-0.67;100.00;99254.78;5091660;28;20684;-63
2021/12/11 04:17:41;;;;;;;20.17;12.20;;;-1.70;99.90;;;-1.03;100.00;99272.06;5092008;28;20283;-64
2021/12/11 04:20:15;;;;;;;18.70;12.73;;;-1.70;99.90;;;-1.11;100.00;99273.88;5091963;28;20295;-64
2021/12/11 04:22:44;;;;;;;21.87;13.23;;;-1.80;99.90;;;-1.09;100.00;99278.03;5091802;28;20190;-64
2021/12/11 04:25:18;;;;;;;21.00;12.47;;;-1.80;99.90;;;-1.00;100.00;99278.84;5092053;28;20295;-63
2021/12/11 04:27:47;;;;;;;28.03;13.83;;;-1.80;99.90;;;-1.22;100.00;99288.28;5091928;28;20603;-63
2021/12/11 04:30:18;;;;;;;19.57;12.53;;;-1.90;99.90;;;-1.01;100.00;99293.84;5091468;28;20203;-63
2021/12/11 04:32:48;;;;;;;20.10;12.73;;;-1.90;99.90;;;-1.21;100.00;99308.41;5091311;28;20329;-64
2021/12/11 04:35:17;;;;;;;17.63;11.67;;;-1.90;99.90;;;-1.29;100.00;99306.63;5088863;28;20659;-65
2021/12/11 04:37:45;;;;;;;22.97;12.67;;;-2.00;99.90;;;-0.95;100.00;99306.41;5071554;28;20203;-64
2021/12/11 04:40:20;;;;;;;19.40;11.60;;;-1.90;99.90;;;-1.08;100.00;99310.56;5071412;28;20281;-65
2021/12/11 04:42:56;;;;;;;21.23;12.50;;;-1.80;99.90;;;-1.24;100.00;99316.66;5071388;28;20611;-66
2021/12/11 04:45:31;;;;;;;18.27;11.73;;;-1.90;99.90;;;-1.27;100.00;99317.00;5071587;28;20277;-63
2021/12/11 04:48:06;;;;;;;19.53;13.10;;;-1.90;99.90;;;-0.71;100.00;99322.19;5071291;28;20192;-63
2021/12/11 04:50:44;;;;;;;17.30;12.57;;;-1.70;99.90;;;-0.91;100.00;99325.41;5075865;28;20285;-64
2021/12/11 04:53:29;;;;;;;18.20;11.97;;;-1.70;99.90;;;-0.95;100.00;99332.00;5091673;28;20249;-63
2021/12/11 04:56:20;;;;;;;17.00;12.20;;;-1.70;99.90;;;-1.07;100.00;99338.63;5091322;28;20191;-63
2021/12/11 04:59:09;;;;;;;18.33;11.50;;;-1.80;99.90;;;-0.94;100.00;99338.94;5091581;28;20243;-63
2021/12/11 05:01:56;;;;;;;17.97;12.07;;;-1.70;99.90;;;-0.67;100.00;99343.84;5091453;28;20700;-64
2021/12/11 05:04:46;;;;;;;17.70;11.33;;;-1.70;99.90;;;-0.94;100.00;99350.34;5091411;28;20594;-64
2021/12/11 05:07:26;;;;;;;45.50;15.57;;;-1.80;99.90;;;-1.12;100.00;99354.13;5092628;28;20229;-65
2021/12/11 05:10:03;;;;;;;17.03;11.67;;;-1.80;99.90;;;-1.11;100.00;99356.63;5095188;28;20189;-64
2021/12/11 05:12:35;;;;;;;16.93;11.80;;;-1.90;99.90;;;-0.90;100.00;99358.75;5095133;28;20638;-62
2021/12/11 05:15:09;;;;;;;38.57;12.33;;;-1.80;99.90;;;-1.29;100.00;99375.28;5095101;28;20190;-64
2021/12/11 05:17:38;;;;;;;20.93;12.07;;;-2.00;99.90;;;-1.00;100.00;99380.06;5095320;28;20182;-64
2021/12/11 05:20:10;;;;;;;18.67;12.53;;;-1.90;99.90;;;-0.84;100.00;99384.50;5094930;28;20207;-64
2021/12/11 05:22:39;;;;;;;22.10;11.77;;;-1.80;99.90;;;-1.04;100.00;99389.31;5095401;28;20271;-64
2021/12/11 05:25:10;;;;;;;19.00;11.80;;;-1.80;99.90;;;-1.10;100.00;99400.56;5094994;28;20232;-64
2021/12/11 05:27:42;;;;;;;19.07;12.17;;;-1.90;99.90;;;-1.32;100.00;99396.72;5095234;28;20214;-62
2021/12/11 05:30:18;;;;;;;19.53;12.60;;;-2.00;99.90;;;-1.18;100.00;99397.88;5094866;28;20222;-64
2021/12/11 05:32:46;;;;;;;19.40;13.10;;;-2.00;99.90;;;-1.15;100.00;99410.75;5081401;28;20314;-64
2021/12/11 05:35:16;;;;;;;23.13;13.70;;;-1.90;99.90;;;-1.06;100.00;99408.94;5074149;28;20223;-63
2021/12/11 05:37:45;;;;;;;40.70;14.30;;;-2.00;99.90;;;-1.14;100.00;99415.06;5074667;28;20287;-64
2021/12/11 05:40:19;;;;;;;31.40;12.80;;;-2.00;99.90;;;-0.92;100.00;99417.06;5074575;28;20207;-63
2021/12/11 05:42:50;;;;;;;17.23;12.40;;;-1.90;99.90;;;-1.20;100.00;99414.91;5074422;28;20532;-63
2021/12/11 05:45:18;;;;;;;20.00;12.90;;;-1.90;99.90;;;-1.21;100.00;99424.63;5074423;28;20289;-64
2021/12/11 05:47:48;;;;;;;30.43;13.73;;;-1.90;99.90;;;-1.09;100.00;99433.91;5086797;28;20198;-64
2021/12/11 05:50:23;;;;;;;19.63;12.23;;;-1.90;99.90;;;-0.84;100.00;99440.84;5094609;28;20554;-65
2021/12/11 05:52:53;;;;;;;20.17;13.20;;;-1.80;99.90;;;-0.87;100.00;99449.09;5094805;28;20239;-63
2021/12/11 05:55:24;;;;;;;19.87;13.10;;;-1.70;99.90;;;-1.05;100.00;99451.09;5094640;28;20297;-63
2021/12/11 05:57:57;;;;;;;23.00;14.60;;;-1.80;99.90;;;-0.97;100.00;99456.38;5094657;28;20299;-64
2021/12/11 06:00:30;;;;;;;22.40;13.80;;;-1.70;99.90;;;-0.94;100.00;99460.50;5094361;28;20188;-63
2021/12/11 06:02:59;;;;;;;26.70;13.47;;;-1.70;99.90;;;-0.95;100.00;99464.97;5094569;28;20182;-63
2021/12/11 06:05:28;;;;;;;19.80;12.93;;;-1.70;99.90;;;-1.11;100.00;99464.94;5093657;28;20198;-64
2021/12/11 06:07:57;;;;;;;51.13;15.97;;;-1.80;99.90;;;-0.99;100.00;99463.63;5094488;28;20226;-63
2021/12/11 06:10:27;;;;;;;19.07;12.53;;;-1.80;99.90;;;-1.06;100.00;99472.34;5094246;28;20280;-63
2021/12/11 06:13:00;;;;;;;19.10;12.40;;;-1.80;99.90;;;-1.13;100.00;99477.47;5094663;28;20225;-62
2021/12/11 06:15:30;;;;;;;25.37;13.33;;;-1.80;99.90;;;-1.06;100.00;99488.22;5094410;28;20232;-63
2021/12/11 06:17:58;;;;;;;37.87;13.27;;;-1.80;99.90;;;-1.08;100.00;99493.66;5093543;28;20211;-64
2021/12/11 06:20:31;;;;;;;22.03;14.97;;;-1.80;99.90;;;-1.04;100.00;99500.28;5094368;28;20290;-63
2021/12/11 06:23:05;;;;;;;22.20;14.37;;;-1.70;99.90;;;-1.00;100.00;99506.91;5096082;28;20221;-64
2021/12/11 06:25:36;;;;;;;22.93;13.97;;;-1.70;99.90;;;-0.85;100.00;99505.28;5095111;28;20304;-65
2021/12/11 06:28:06;;;;;;;23.13;13.97;;;-1.70;99.90;;;-0.97;100.00;99505.75;5094124;28;20257;-64
2021/12/11 06:30:36;;;;;;;24.37;13.27;;;-1.70;99.90;;;-0.79;100.00;99517.84;5093676;28;20233;-63
2021/12/11 06:33:04;;;;;;;27.40;13.60;;;-1.70;99.90;;;-0.73;100.00;99517.19;5078475;28;20236;-64
2021/12/11 06:35:39;;;;;;;23.00;13.17;;;-1.60;99.90;;;-0.93;100.00;99522.94;5074218;28;20223;-64
2021/12/11 06:38:14;;;;;;;23.33;12.87;;;-1.60;99.90;;;-0.80;100.00;99533.84;5073169;28;20198;-63
2021/12/11 06:40:42;;;;;;;43.97;14.70;;;-1.60;99.90;;;-0.65;100.00;99535.69;5073215;28;20261;-63
2021/12/11 06:43:12;;;;;;;20.10;13.00;;;-1.60;99.90;;;-0.89;100.00;99542.75;5078988;28;20292;-64
2021/12/11 06:45:40;;;;;;;19.43;12.87;;;-1.60;99.90;;;-0.82;100.00;99546.41;5093678;28;20233;-65
2021/12/11 06:48:14;;;;;;;23.17;13.47;;;-1.60;99.90;;;-0.75;100.00;99545.59;5093916;28;20280;-64
2021/12/11 06:50:42;;;;;;;25.40;14.47;;;-1.50;99.90;;;-0.85;100.00;99550.22;5093200;28;20202;-63
2021/12/11 06:53:21;;;;;;;24.60;14.00;;;-1.60;99.90;;;-0.95;100.00;99556.63;5093470;28;20296;-64
2021/12/11 06:55:49;;;;;;;26.37;15.20;;;-1.60;99.90;;;-0.86;100.00;99558.31;5093197;28;20208;-63
2021/12/11 06:58:19;;;;;;;22.57;14.23;;;-1.60;99.90;;;-0.83;100.00;99566.72;5093243;28;20214;-63
2021/12/11 07:00:47;;;;;;;22.00;14.50;;;-1.60;99.90;;;-0.64;100.00;99571.72;5092766;28;20302;-63
2021/12/11 07:03:16;;;;;;;29.23;14.87;;;-1.50;99.90;;;-0.41;100.00;99574.56;5093301;28;20307;-64
2021/12/11 07:05:44;;;;;;;23.00;14.67;;;-1.40;99.90;;;-0.41;100.00;99583.34;5092376;28;20600;-64
2021/12/11 07:08:13;;;;;;;27.47;14.93;;;-1.40;99.90;;;-0.64;100.00;99600.81;5092487;28;20653;-66
2021/12/11 07:10:42;;;;;;;36.43;16.60;;;-1.40;99.90;;;-0.71;100.00;99618.28;5093189;28;20299;-65
2021/12/11 07:13:12;;;;;;;20.57;14.63;;;-1.50;99.90;;;-0.65;100.00;99616.84;5093128;28;20200;-65
2021/12/11 07:15:42;;;;;;;29.20;15.63;;;-1.40;99.90;;;-0.64;100.00;99619.31;5092833;28;20246;-63
2021/12/11 07:18:10;;;;;;;23.57;14.60;;;-1.50;99.90;;;-0.42;100.00;99631.91;5092876;28;20188;-64
2021/12/11 07:20:39;;;;;;;32.23;15.63;;;-1.40;99.90;;;-0.55;100.00;99639.50;5092525;28;20736;-65
2021/12/11 07:23:08;;;;;;;24.60;14.87;;;-1.40;99.90;;;-0.31;100.00;99647.50;5092923;28;20283;-65
2021/12/11 07:25:41;;;;;;;39.90;15.80;;;-1.30;99.90;;;-0.49;100.00;99660.00;5092390;28;20659;-64
2021/12/11 07:28:11;;;;;;;22.67;14.07;;;-1.30;99.90;;;-0.56;100.00;99661.63;5092618;28;20203;-64
2021/12/11 07:30:45;;;;;;;28.13;15.70;;;-1.30;99.90;;;-0.63;100.00;99673.03;5092814;28;20252;-65
2021/12/11 07:33:15;;;;;;;29.03;15.37;;;-1.40;99.90;;;-0.60;100.00;99678.00;5092403;28;20319;-64
2021/12/11 07:35:46;;;;;;;59.67;16.57;;;-1.40;99.90;;;-0.53;100.00;99690.44;5092644;28;20230;-64
2021/12/11 07:38:14;;;;;;;25.10;15.00;;;-1.30;99.90;;;-0.32;100.00;99697.94;5093188;28;20276;-64
2021/12/11 07:40:48;;;;;;;27.13;16.07;;;-1.30;99.90;;;-0.12;100.00;99694.00;5076956;28;20651;-63
2021/12/11 07:43:18;;;;;;;23.53;15.13;;;-1.10;99.90;;;-0.20;100.00;99697.44;5072712;28;20194;-64
2021/12/11 07:45:48;;;;;;;26.90;15.67;;;-1.10;99.90;;;-0.43;100.00;99704.34;5072557;28;20184;-64
2021/12/11 07:48:17;;;;;;;29.00;16.30;;;-1.10;99.90;;;-0.33;100.00;99706.84;5072827;28;20189;-64
2021/12/11 07:50:47;;;;;;;25.70;16.40;;;-1.20;99.90;;;-0.33;100.00;99705.03;5072624;28;20207;-63
2021/12/11 07:53:17;;;;;;;25.27;15.83;;;-1.10;99.90;;;-0.40;100.00;99711.94;5072286;28;20203;-64
2021/12/11 07:55:46;;;;;;;31.47;16.93;;;-1.10;99.90;;;-0.23;100.00;99720.75;5072725;28;20299;-63
2021/12/11 07:58:14;;;;;;;27.90;16.10;;;-1.10;99.90;;;-0.27;100.00;99732.66;5072596;28;20295;-64
2021/12/11 08:00:45;;;;;;;25.80;15.90;;;-1.10;99.90;;;-0.19;100.00;99720.25;5072891;28;20210;-64
2021/12/11 08:03:19;;;;;;;26.50;15.50;;;-1.00;99.90;;;-0.13;100.00;99727.56;5072802;28;20185;-64
2021/12/11 08:05:52;;;;;;;23.93;14.77;;;-1.00;99.90;;;-0.29;100.00;99732.78;5080030;28;20216;-64
2021/12/11 08:08:23;;;;;;;34.03;16.53;;;-1.00;99.90;;;-0.22;100.00;99735.66;5092858;28;20198;-64
2021/12/11 08:10:56;;;;;;;24.57;14.60;;;-1.10;99.90;;;-0.23;100.00;99737.47;5092490;28;20276;-66
2021/12/11 08:13:25;;;;;;;28.37;16.13;;;-1.00;99.90;;;-0.19;100.00;99744.06;5092836;28;20270;-63
2021/12/11 08:15:56;;;;;;;26.93;15.17;;;-1.00;99.90;;;-0.29;100.00;99746.03;5092298;28;20734;-64
2021/12/11 08:18:28;;;;;;;25.90;16.57;;;-1.00;99.90;;;-0.11;100.00;99754.69;5092380;28;20537;-63
2021/12/11 08:20:56;;;;;;;27.23;15.13;;;-1.00;99.90;;;-0.03;100.00;99764.47;5084260;28;20657;-65
2021/12/11 08:23:25;;;;;;;26.80;16.30;;;-0.90;99.90;;;-0.06;100.00;99773.56;5072004;28;20664;-64
2021/12/11 08:25:54;;;;;;;23.63;14.77;;;-0.80;99.90;;;0.14;100.00;99783.84;5071938;28;20694;-63
2021/12/11 08:28:27;;;;;;;24.33;15.17;;;-0.80;99.90;;;0.14;100.00;99783.84;5072256;28;20207;-63
2021/12/11 08:30:59;;;;;;;23.23;15.10;;;-0.80;99.90;;;0.09;100.00;99787.00;5072193;28;20258;-64
2021/12/11 08:33:29;;;;;;;27.13;16.27;;;-0.70;99.90;;;0.28;100.00;99785.88;5071551;28;20749;-64
2021/12/11 08:35:57;;;;;;;24.20;14.90;;;-0.60;99.90;;;0.25;100.00;99792.31;5079665;28;20219;-65
2021/12/11 08:38:27;;;;;;;25.70;15.17;;;-0.60;99.90;;;0.21;100.00;99796.28;5091969;28;20293;-64
2021/12/11 08:41:00;;;;;;;23.97;15.33;;;-0.60;99.90;;;0.23;100.00;99793.47;5091963;28;20279;-64
2021/12/11 08:43:29;;;;;;;26.70;16.53;;;-0.60;99.90;;;0.35;100.00;99805.41;5092963;28;20285;-64
2021/12/11 08:46:09;;;;;;;27.37;15.80;;;-0.50;99.90;;;0.41;100.00;99810.03;5092642;28;20283;-63
2021/12/11 08:48:44;;;;;;;28.43;17.57;;;-0.50;99.90;;;0.40;100.00;99813.69;5093907;28;20249;-64
2021/12/11 08:51:16;;;;;;;27.77;17.83;;;-0.50;99.90;;;0.49;100.00;99813.53;5092877;28;20671;-64
2021/12/11 08:53:44;;;;;;;31.07;17.73;;;-0.40;99.90;;;0.48;100.00;99827.78;5092345;28;20279;-65
2021/12/11 08:56:14;;;;;;;31.07;16.93;;;-0.30;99.90;;;0.61;100.00;99827.31;5091200;28;20320;-65
2021/12/11 08:58:45;;;;;;;27.73;15.73;;;-0.40;99.90;;;0.87;100.00;99836.75;5091245;28;20203;-64
2021/12/11 09:01:24;;;;;;;25.53;15.53;;;-0.30;99.90;;;0.69;100.00;99822.00;5091963;28;20281;-63
2021/12/11 09:03:59;;;;;;;26.83;14.50;;;-0.20;99.90;;;0.88;100.00;99824.34;5091484;28;20183;-64
2021/12/11 09:06:33;;;;;;;23.97;14.73;;;-0.20;99.90;;;0.93;100.00;99829.97;5091188;28;20275;-63
2021/12/11 09:09:09;;;;;;;24.83;15.37;;;-0.10;99.90;;;0.84;100.00;99834.44;5091569;28;20300;-63
2021/12/11 09:11:42;;;;;;;25.97;15.80;;;0.00;99.90;;;0.89;100.00;99844.53;5092065;28;20188;-64
2021/12/11 09:14:15;;;;;;;22.87;14.87;;;0.00;99.90;;;0.86;100.00;99843.03;5091788;28;20238;-65
2021/12/11 09:16:50;;;;;;;25.00;15.50;;;0.00;99.90;;;0.97;100.00;99848.03;5091360;28;20220;-64
2021/12/11 09:19:24;;;;;;;23.07;14.40;;;0.00;99.90;;;0.80;100.00;99864.06;5091308;28;20279;-63
2021/12/11 09:21:57;;;;;;;24.17;14.00;;;0.00;99.90;;;0.88;100.00;99870.22;5091444;28;20605;-65
2021/12/11 09:24:31;;;;;;;24.27;15.40;;;0.10;99.90;;;1.09;100.00;99872.38;5091716;28;20196;-65
2021/12/11 09:27:11;;;;;;;22.70;13.83;;;0.10;99.90;;;1.11;100.00;99870.38;5091605;28;20691;-66
2021/12/11 09:29:49;;;;;;;25.73;16.60;;;0.20;99.90;;;1.10;100.00;99872.19;5081467;28;20195;-64
2021/12/11 09:32:25;;;;;;;27.50;15.07;;;0.20;99.90;;;1.18;100.00;99877.50;5083040;28;20239;-63
2021/12/11 09:35:01;;;;;;;23.20;16.13;;;0.20;99.90;;;1.24;100.00;99884.81;5071156;28;20184;-63
2021/12/11 09:37:32;;;;;;;23.00;14.83;;;0.20;99.90;;;1.28;100.00;99890.59;5071553;28;20235;-65
2021/12/11 09:40:07;;;;;;;20.23;13.83;;;0.30;99.90;;;1.17;100.00;99890.91;5071408;28;20276;-63
2021/12/11 09:42:35;;;;;;;20.53;13.37;;;0.20;99.90;;;1.29;100.00;99892.25;5071707;28;20289;-64
2021/12/11 09:45:12;;;;;;;23.20;14.23;;;0.30;99.90;;;1.49;100.00;99900.69;5071257;28;20740;-64
2021/12/11 09:47:50;;;;;;;21.80;14.50;;;0.40;99.90;;;1.34;100.00;99897.06;5071161;28;20202;-64
2021/12/11 09:50:30;;;;;;;22.13;14.37;;;0.50;99.90;;;1.32;100.00;99905.16;5071474;28;20199;-63
2021/12/11 09:52:59;;;;;;;22.13;13.73;;;0.40;99.90;;;1.47;100.00;99903.53;5073114;28;20298;-65
2021/12/11 09:55:36;;;;;;;21.70;14.30;;;0.50;99.90;;;1.42;100.00;99908.47;5074863;28;20292;-64
2021/12/11 09:58:10;;;;;;;28.43;15.47;;;0.60;99.90;;;1.48;100.00;99913.13;5074551;28;20908;-64
2021/12/11 10:00:43;;;;;;;22.93;14.67;;;0.60;99.90;;;1.53;100.00;99921.41;5074791;28;20336;-63
2021/12/11 10:03:17;;;;;;;26.27;15.80;;;0.60;99.90;;;1.45;100.00;99924.09;5073995;28;20623;-66
2021/12/11 10:05:55;;;;;;;23.43;14.80;;;0.60;99.90;;;1.46;100.00;99925.72;5081839;28;20188;-64
2021/12/11 10:08:30;;;;;;;22.53;13.90;;;0.60;99.90;;;1.49;100.00;99921.94;5094984;28;20206;-64
2021/12/11 10:11:10;;;;;;;25.77;16.13;;;0.60;99.90;;;1.60;100.00;99922.41;5094534;28;20234;-64
2021/12/11 10:13:44;;;;;;;26.37;17.00;;;0.70;99.90;;;1.59;100.00;99922.56;5095168;28;20287;-64
2021/12/11 10:16:18;;;;;;;22.30;15.33;;;0.70;99.90;;;1.72;100.00;99928.19;5094454;28;20204;-65
2021/12/11 10:18:48;;;;;;;24.40;16.00;;;0.80;99.90;;;1.91;100.00;99933.13;5093485;28;20188;-65
2021/12/11 10:21:22;;;;;;;24.03;15.97;;;0.80;99.90;;;1.90;100.00;99931.44;5094254;28;20739;-60
2021/12/11 10:23:58;;;;;;;23.00;14.73;;;0.80;99.90;;;1.89;100.00;99930.66;5094836;28;20271;-61
2021/12/11 10:26:29;;;;;;;23.10;15.00;;;0.90;99.90;;;1.81;100.00;99929.84;5095031;28;20187;-73